createdAt,value
2022-10-02T07:10:10.511Z,12.94
2022-10-02T07:13:29.676Z,13.08
2022-10-02T07:16:30.473Z,13.15
2022-10-02T07:19:49.489Z,13.25
2022-10-02T07:22:45.455Z,13.30
2022-10-02T07:26:06.220Z,13.39
2022-10-02T07:28:49.651Z,13.42
2022-10-02T07:31:35.544Z,13.50
2022-10-02T07:34:31.992Z,13.49
2022-10-02T07:37:23.942Z,13.59
2022-10-02T07:40:23.607Z,13.62
2022-10-02T07:43:23.463Z,13.61
2022-10-02T07:46:14.292Z,13.70
2022-10-02T07:49:16.180Z,13.72
2022-10-02T07:52:01.480Z,13.77
2022-10-02T07:55:10.570Z,13.86
2022-10-02T07:57:58.350Z,13.85
2022-10-02T08:00:44.846Z,13.91
2022-10-02T08:03:27.826Z,13.89
2022-10-02T08:06:05.960Z,13.91
2022-10-02T08:08:49.896Z,13.98
2022-10-02T08:11:34.629Z,14.03
2022-10-02T08:14:18.600Z,14.01
2022-10-02T08:17:02.402Z,14.10
2022-10-02T08:19:43.897Z,14.19
2022-10-02T08:22:29.404Z,14.23
2022-10-02T08:25:16.462Z,14.26
2022-10-02T08:28:20.859Z,14.33
2022-10-02T08:30:57.841Z,14.46
2022-10-02T08:33:37.590Z,14.52
2022-10-02T08:36:59.838Z,14.52
2022-10-02T08:40:05.768Z,14.54
2022-10-02T08:43:39.508Z,14.53
2022-10-02T08:47:25.378Z,14.53
2022-10-02T08:51:09.562Z,14.44
2022-10-02T08:54:39.279Z,14.36
2022-10-02T08:57:42.881Z,14.31
2022-10-02T09:00:27.648Z,14.32
2022-10-02T09:03:59.659Z,14.40
2022-10-02T09:07:47.673Z,14.55
2022-10-02T09:11:13.874Z,14.72
2022-10-02T09:14:18.140Z,15.21
2022-10-02T09:17:19.589Z,15.57
2022-10-02T09:20:30.308Z,16.04
2022-10-02T09:24:11.254Z,15.97
2022-10-02T09:27:16.101Z,16.07
2022-10-02T09:30:40.078Z,16.12
2022-10-02T09:33:49.877Z,15.95
2022-10-02T09:37:25.329Z,15.95
2022-10-02T09:40:53.587Z,15.81
2022-10-02T09:44:11.090Z,15.59
2022-10-02T09:47:35.989Z,15.36
2022-10-02T09:51:02.794Z,15.10
2022-10-02T09:54:13.947Z,14.93
2022-10-02T09:57:41.688Z,14.77
2022-10-02T10:00:38.239Z,14.67
2022-10-02T10:03:48.197Z,14.63
2022-10-02T10:07:09.834Z,14.84
2022-10-02T10:10:32.657Z,14.92
2022-10-02T10:13:50.974Z,14.93
2022-10-02T10:17:26.843Z,14.92
2022-10-02T10:20:37.077Z,14.84
2022-10-02T10:24:06.662Z,14.86
2022-10-02T10:27:30.416Z,14.79
2022-10-02T10:30:27.088Z,14.90
2022-10-02T10:33:33.566Z,14.95
2022-10-02T10:36:47.025Z,15.03
2022-10-02T10:40:03.335Z,14.93
2022-10-02T10:43:37.915Z,14.85
2022-10-02T10:46:49.227Z,14.79
2022-10-02T10:50:02.658Z,14.80
2022-10-02T10:53:12.404Z,14.65
2022-10-02T10:56:37.715Z,14.58
2022-10-02T11:00:21.525Z,14.42
2022-10-02T11:03:46.180Z,14.25
2022-10-02T11:07:08.193Z,14.13
2022-10-02T11:10:21.635Z,13.95
2022-10-02T11:13:25.725Z,13.86
2022-10-02T11:16:19.763Z,13.78
2022-10-02T11:19:31.126Z,13.63
2022-10-02T11:22:56.195Z,13.51
2022-10-02T11:26:09.700Z,13.30
2022-10-02T11:29:34.415Z,13.17
2022-10-02T11:32:46.154Z,13.04
2022-10-02T11:35:35.765Z,13.00
2022-10-02T11:39:08.855Z,12.89
2022-10-02T11:42:15.216Z,12.73
2022-10-02T11:45:20.913Z,12.75
2022-10-02T11:48:33.947Z,12.75
2022-10-02T11:51:47.990Z,12.73
2022-10-02T11:54:54.993Z,12.70
2022-10-02T11:57:46.053Z,12.67
2022-10-02T12:01:06.234Z,12.69
2022-10-02T12:04:22.638Z,12.69
2022-10-02T12:07:31.568Z,12.71
2022-10-02T12:10:36.779Z,12.78
2022-10-02T12:13:50.616Z,12.81
2022-10-02T12:16:52.122Z,12.96
2022-10-02T12:20:04.669Z,13.13
2022-10-02T12:23:10.846Z,13.32
2022-10-02T12:26:09.316Z,13.53
2022-10-02T12:28:56.900Z,13.68
2022-10-02T12:31:51.574Z,13.95
2022-10-02T12:34:43.578Z,14.18
2022-10-02T12:37:27.679Z,14.39
2022-10-02T12:40:23.933Z,14.63
2022-10-02T12:43:43.637Z,14.79
2022-10-02T12:47:03.538Z,15.18
2022-10-02T12:49:52.082Z,15.40
2022-10-02T12:53:21.841Z,15.83
2022-10-02T12:56:50.997Z,16.01
2022-10-02T12:59:41.882Z,16.01
2022-10-02T13:03:23.506Z,15.91
2022-10-02T13:07:14.143Z,15.68
2022-10-02T13:10:01.741Z,15.45
2022-10-02T13:13:00.408Z,15.34
2022-10-02T13:15:49.854Z,15.33
2022-10-02T13:18:56.477Z,15.24
2022-10-02T13:21:50.017Z,15.31
2022-10-02T13:24:50.615Z,15.30
2022-10-02T13:27:41.483Z,15.27
2022-10-02T13:30:21.393Z,15.14
2022-10-02T13:33:26.895Z,15.09
2022-10-02T13:36:17.485Z,15.01
2022-10-02T13:39:22.403Z,14.92
2022-10-02T13:42:20.448Z,14.81
2022-10-02T13:45:11.955Z,14.55
2022-10-02T13:48:07.443Z,14.22
2022-10-02T13:50:56.543Z,14.00
2022-10-02T13:54:07.962Z,13.77
2022-10-02T13:57:00.810Z,13.62
2022-10-02T14:00:07.027Z,13.47
2022-10-02T14:03:06.381Z,13.50
2022-10-02T14:05:57.061Z,13.57
2022-10-02T14:09:19.371Z,13.69
2022-10-02T14:12:20.855Z,13.90
2022-10-02T14:15:23.488Z,13.97
2022-10-02T14:18:46.011Z,14.05
2022-10-02T14:21:33.170Z,14.13
2022-10-02T14:24:51.751Z,14.28
2022-10-02T14:28:20.428Z,14.41
2022-10-02T14:31:26.550Z,14.39
2022-10-02T14:34:32.340Z,14.38
2022-10-02T14:37:55.663Z,14.35
2022-10-02T14:40:43.101Z,14.16
2022-10-02T14:44:09.213Z,14.05
2022-10-02T14:47:16.206Z,13.90
2022-10-02T14:50:23.811Z,13.75
2022-10-02T14:53:34.321Z,13.60
2022-10-02T14:56:47.100Z,13.44
2022-10-02T14:59:46.600Z,13.36
2022-10-02T15:03:02.382Z,13.21
2022-10-02T15:06:22.175Z,13.13
2022-10-02T15:09:06.190Z,13.00
2022-10-02T15:12:14.370Z,12.94
2022-10-02T15:15:12.131Z,12.86
2022-10-02T15:18:00.606Z,12.80
2022-10-02T15:20:54.087Z,12.75
2022-10-02T15:23:50.195Z,12.63
2022-10-02T15:26:49.117Z,12.60
2022-10-02T15:29:39.790Z,12.53
2022-10-02T15:32:48.629Z,12.42
2022-10-02T15:35:38.137Z,12.31
2022-10-02T15:39:11.961Z,12.11
2022-10-02T15:42:03.604Z,12.11
2022-10-02T15:45:17.315Z,12.07
2022-10-02T15:48:22.419Z,11.98
2022-10-02T15:51:14.077Z,11.92
2022-10-02T15:54:09.640Z,11.92
2022-10-02T15:57:31.309Z,11.90
2022-10-02T16:00:18.329Z,11.84
2022-10-02T16:03:18.293Z,11.74
2022-10-02T16:06:04.053Z,11.77
2022-10-02T16:09:14.956Z,11.71
2022-10-02T16:12:30.556Z,11.70
2022-10-02T16:15:23.217Z,11.64
2022-10-02T16:18:29.206Z,11.67
2022-10-02T16:21:53.928Z,11.63
2022-10-02T16:24:51.198Z,11.63
2022-10-02T16:27:49.375Z,11.61
2022-10-02T16:30:28.017Z,11.61
2022-10-02T16:33:26.247Z,11.58
2022-10-02T16:36:34.692Z,11.55
2022-10-02T16:39:40.809Z,11.52
2022-10-02T16:42:35.397Z,11.48
2022-10-02T16:45:51.326Z,11.49
2022-10-02T16:48:40.707Z,11.47
2022-10-02T16:51:34.531Z,11.43
2022-10-02T16:54:25.820Z,11.44
2022-10-02T16:57:17.957Z,11.42
2022-10-02T17:00:03.299Z,11.40
2022-10-02T17:02:49.524Z,11.45
2022-10-02T17:05:36.732Z,11.45
2022-10-02T17:08:26.607Z,11.47
2022-10-02T17:11:20.627Z,11.51
2022-10-02T17:14:19.695Z,11.55
2022-10-02T17:17:04.475Z,11.57
2022-10-02T17:19:49.561Z,11.56
2022-10-02T17:22:36.466Z,11.57
2022-10-02T17:25:27.379Z,11.59
2022-10-02T17:28:11.844Z,11.63
2022-10-02T17:31:42.311Z,11.66
2022-10-02T17:34:26.314Z,11.65
2022-10-02T17:38:02.777Z,11.67
2022-10-02T17:40:46.227Z,11.66
2022-10-02T17:43:33.684Z,11.67
